Time;durP1;ratioP1;P1;durP2;ratioP2;P2;SDS_P1;SDS_P2;PMS_P1;PMS_P2;Temp;Humidity;BMP_temperature;BMP_pressure;BME280_temperature;BME280_humidity;BME280_pressure;Samples;Min_cycle;Max_cycle;Signal;HPM_P1;HPM_P2
2023/10/22 00:00:15;;;;;;;2.85;0.80;;;;;;;19.41;44.96;99632.75;16111114;19;130092;-45
2023/10/22 00:05:37;;;;;;;1.27;0.38;;;;;;;19.39;45.17;99633.00;16108240;19;130265;-45
2023/10/22 00:10:59;;;;;;;1.98;0.65;;;;;;;19.37;45.19;99649.94;16111432;19;130960;-48
2023/10/22 00:16:21;;;;;;;2.97;0.75;;;;;;;19.36;45.23;99659.38;16112193;19;129982;-45
2023/10/22 00:21:43;;;;;;;2.75;0.60;;;;;;;19.34;45.18;99672.69;16111498;19;129894;-47
2023/10/22 00:27:05;;;;;;;1.58;0.70;;;;;;;19.32;45.05;99674.06;16111284;19;131981;-45
2023/10/22 00:32:27;;;;;;;3.38;0.32;;;;;;;19.30;45.48;99671.59;16111341;19;130382;-45
2023/10/22 00:37:49;;;;;;;4.35;0.82;;;;;;;19.30;45.62;99684.63;16108763;19;129580;-49
2023/10/22 00:43:11;;;;;;;3.17;0.80;;;;;;;19.28;45.31;99700.69;16109613;19;129275;-45
2023/10/22 00:48:33;;;;;;;1.80;0.50;;;;;;;19.27;45.45;99707.34;16102329;19;129799;-46
2023/10/22 00:53:56;;;;;;;2.33;0.60;;;;;;;19.26;45.30;99720.41;16110356;19;129815;-46
2023/10/22 00:59:18;;;;;;;1.40;0.55;;;;;;;19.24;45.17;99727.34;16112374;19;129104;-47
2023/10/22 01:04:41;;;;;;;2.45;0.95;;;;;;;19.22;45.35;99741.47;16107117;19;130530;-49
2023/10/22 01:10:03;;;;;;;4.40;0.52;;;;;;;19.20;45.62;99741.72;16110217;19;129286;-45
2023/10/22 01:15:26;;;;;;;1.58;0.52;;;;;;;19.19;45.31;99762.25;16113430;19;129937;-47
2023/10/22 01:20:48;;;;;;;1.30;0.50;;;;;;;19.18;45.34;99779.97;16122219;19;130142;-44
2023/10/22 01:26:10;;;;;;;2.65;0.90;;;;;;;19.17;45.58;99775.53;16119321;19;130892;-45
2023/10/22 01:31:32;;;;;;;3.55;0.52;;;;;;;19.16;45.58;99792.47;16118969;19;130590;-46
2023/10/22 01:36:54;;;;;;;2.28;0.55;;;;;;;19.14;45.31;99789.97;16119118;19;130382;-47
2023/10/22 01:42:16;;;;;;;1.25;0.40;;;;;;;19.13;45.63;99802.19;16112866;19;129771;-47
2023/10/22 01:47:38;;;;;;;2.25;0.65;;;;;;;19.13;45.48;99817.97;16119489;19;129691;-52
2023/10/22 01:53:01;;;;;;;3.08;0.40;;;;;;;19.13;45.35;99826.28;16109220;19;130870;-47
2023/10/22 01:58:24;;;;;;;1.08;0.38;;;;;;;19.10;45.35;99833.22;16117755;19;130016;-47
2023/10/22 02:03:46;;;;;;;0.80;0.40;;;;;;;19.09;45.44;99839.88;16120658;19;130301;-47
2023/10/22 02:09:08;;;;;;;1.30;0.32;;;;;;;19.09;45.35;99856.50;16118120;19;129458;-45
2023/10/22 02:14:30;;;;;;;1.23;0.30;;;;;;;19.07;45.69;99862.34;16119070;19;131829;-48
2023/10/22 02:19:52;;;;;;;1.52;0.40;;;;;;;19.06;45.72;99877.31;16116350;19;131405;-48
2023/10/22 02:25:14;;;;;;;0.47;0.30;;;;;;;19.06;45.79;99882.84;16109810;19;129671;-49
2023/10/22 02:30:36;;;;;;;1.00;0.32;;;;;;;19.06;45.40;99895.84;16118755;19;130353;-49
2023/10/22 02:35:58;;;;;;;0.80;0.30;;;;;;;19.05;45.40;99892.28;16116038;19;130489;-50
2023/10/22 02:41:20;;;;;;;0.85;0.28;;;;;;;19.02;45.94;99903.91;16107054;19;133132;-43
2023/10/22 02:46:42;;;;;;;1.10;0.30;;;;;;;19.01;45.85;99918.84;16107916;19;131859;-50
2023/10/22 02:52:05;;;;;;;1.48;0.30;;;;;;;19.01;45.77;99935.50;16113318;19;130393;-50
2023/10/22 02:57:27;;;;;;;1.40;0.40;;;;;;;19.01;45.71;99946.56;16112425;19;129675;-48
2023/10/22 03:02:48;;;;;;;0.47;0.30;;;;;;;19.02;45.64;99950.16;16113931;19;129989;-50
2023/10/22 03:08:10;;;;;;;2.03;0.38;;;;;;;19.01;45.54;99957.66;16113013;19;131153;-49
2023/10/22 03:13:33;;;;;;;0.75;0.22;;;;;;;19.02;45.46;99977.88;16113005;19;131220;-48
2023/10/22 03:18:55;;;;;;;1.13;0.30;;;;;;;19.00;45.33;99980.94;16108694;19;130550;-48
2023/10/22 03:24:17;;;;;;;0.75;0.25;;;;;;;19.00;45.42;99989.25;16109947;19;130909;-45
2023/10/22 03:29:39;;;;;;;2.03;0.38;;;;;;;19.01;45.93;100001.19;16112884;19;129717;-47
2023/10/22 03:35:05;;;;;;;1.85;0.50;;;;;;;19.00;45.62;100014.22;16114984;19;130677;-50
2023/10/22 03:40:27;;;;;;;0.90;0.38;;;;;;;18.98;45.88;100021.97;16111662;19;129152;-48
2023/10/22 03:45:49;;;;;;;1.13;0.30;;;;;;;18.98;45.73;100030.28;16111934;19;130521;-47
2023/10/22 03:51:11;;;;;;;0.90;0.30;;;;;;;18.98;45.97;100035.81;16112412;19;130959;-51
2023/10/22 03:56:35;;;;;;;0.77;0.40;;;;;;;18.98;45.70;100048.84;16110796;19;130312;-52
2023/10/22 04:01:57;;;;;;;0.50;0.20;;;;;;;18.96;45.54;100053.81;16113111;19;130849;-49
2023/10/22 04:07:19;;;;;;;1.33;0.50;;;;;;;18.96;45.52;100078.78;16111870;19;129299;-46
2023/10/22 04:12:41;;;;;;;0.68;0.28;;;;;;;18.94;45.96;100090.13;16113317;19;129676;-50
2023/10/22 04:18:03;;;;;;;0.55;0.30;;;;;;;18.95;45.79;100091.81;16109131;19;129677;-46
2023/10/22 04:23:25;;;;;;;0.80;0.30;;;;;;;18.93;45.92;100088.47;16112902;19;134048;-47
2023/10/22 04:28:47;;;;;;;0.95;0.40;;;;;;;;;;16112571;19;130874;-53
2023/10/22 04:34:09;;;;;;;1.67;0.40;;;;;;;18.90;45.60;100103.69;16110066;19;129857;-48
2023/10/22 04:39:32;;;;;;;2.60;0.50;;;;;;;18.90;46.27;100119.50;16110587;19;131756;-47
2023/10/22 04:44:55;;;;;;;0.45;0.30;;;;;;;18.90;46.05;100133.34;16109539;19;129371;-49
2023/10/22 04:50:17;;;;;;;1.15;0.28;;;;;;;18.88;45.69;100146.63;16110212;19;130929;-51
2023/10/22 04:55:39;;;;;;;1.58;0.60;;;;;;;18.88;46.19;100149.41;16125102;19;131301;-47
2023/10/22 05:01:01;;;;;;;2.35;0.30;;;;;;;18.86;45.88;100149.69;16124646;19;130711;-47
2023/10/22 05:06:22;;;;;;;0.90;0.30;;;;;;;18.86;45.95;100151.59;16124647;19;130716;-48
2023/10/22 05:11:44;;;;;;;0.75;0.40;;;;;;;18.84;46.18;100162.97;16122882;19;131550;-46
2023/10/22 05:17:06;;;;;;;0.77;0.30;;;;;;;18.84;46.17;100168.50;16123926;19;131899;-47
2023/10/22 05:22:28;;;;;;;0.47;0.20;;;;;;;18.84;46.14;100174.03;16121710;19;129445;-46
2023/10/22 05:27:50;;;;;;;1.33;0.40;;;;;;;18.85;45.95;100185.94;16121559;19;129542;-51
2023/10/22 05:33:12;;;;;;;1.23;0.40;;;;;;;18.84;46.30;100187.91;16118485;19;132410;-46
2023/10/22 05:38:34;;;;;;;0.65;0.28;;;;;;;18.83;45.95;100194.53;16124073;19;129557;-49
2023/10/22 05:44:01;;;;;;;0.60;0.20;;;;;;;18.83;45.80;100199.25;16121355;19;130743;-48
2023/10/22 05:49:23;;;;;;;1.30;0.30;;;;;;;18.83;46.34;100210.34;16124824;19;130610;-50
2023/10/22 05:54:45;;;;;;;0.47;0.20;;;;;;;18.83;46.07;100219.47;16116409;19;132287;-48
2023/10/22 06:00:07;;;;;;;0.52;0.20;;;;;;;18.82;46.19;100231.66;16114342;19;130846;-48
2023/10/22 06:05:39;;;;;;;0.90;0.32;;;;;;;18.83;45.96;100238.06;16116435;19;131888;-46
2023/10/22 06:11:04;;;;;;;0.70;0.30;;;;;;;18.81;45.92;100257.69;16113366;19;131001;-51
2023/10/22 06:16:26;;;;;;;0.40;0.20;;;;;;;18.80;46.39;100264.34;16113711;19;129487;-47
2023/10/22 06:21:48;;;;;;;0.40;0.20;;;;;;;18.80;46.48;100269.06;16108872;19;129779;-47
2023/10/22 06:27:10;;;;;;;0.82;0.30;;;;;;;18.80;46.40;100280.16;16120782;19;133447;-49
2023/10/22 06:32:32;;;;;;;1.75;0.40;;;;;;;18.79;46.26;100286.78;16119854;19;130297;-45
2023/10/22 06:37:54;;;;;;;1.48;0.40;;;;;;;18.75;46.14;100292.84;16112951;19;130149;-47
2023/10/22 06:43:16;;;;;;;1.40;0.30;;;;;;;18.71;46.59;100311.09;16117758;19;131014;-51
2023/10/22 06:48:38;;;;;;;2.17;0.30;;;;;;;18.73;46.31;100316.38;16113918;19;130394;-49
2023/10/22 06:54:00;;;;;;;0.98;0.30;;;;;;;18.80;46.19;100338.34;16114114;19;132674;-46
2023/10/22 06:59:22;;;;;;;1.35;0.25;;;;;;;18.90;46.27;100338.44;16108542;19;130572;-46
2023/10/22 07:04:44;;;;;;;2.67;0.50;;;;;;;19.07;46.21;100355.81;16113496;19;129807;-49
2023/10/22 07:10:07;;;;;;;1.15;0.40;;;;;;;19.34;46.01;100363.25;16112344;19;130864;-48
2023/10/22 07:15:29;;;;;;;1.75;0.40;;;;;;;19.53;45.60;100362.84;16113061;19;130957;-53
2023/10/22 07:20:52;;;;;;;5.57;0.47;;;;;;;19.65;45.40;100376.50;16112925;19;130689;-49
2023/10/22 07:26:14;;;;;;;1.98;0.32;;;;;;;19.76;44.79;100377.44;16112855;19;129589;-51
2023/10/22 07:31:36;;;;;;;1.13;0.40;;;;;;;19.82;45.03;100387.44;16114957;19;131260;-53
2023/10/22 07:36:58;;;;;;;2.53;0.52;;;;;;;19.85;44.95;100395.25;16110696;19;130388;-52
2023/10/22 07:42:19;;;;;;;1.38;0.25;;;;;;;19.85;45.30;100400.78;16113233;19;129752;-50
2023/10/22 07:47:41;;;;;;;2.20;0.52;;;;;;;19.84;45.23;100413.00;16111189;19;129595;-54
2023/10/22 07:53:04;;;;;;;3.70;0.43;;;;;;;19.81;45.52;100419.09;16105671;19;131102;-50
2023/10/22 07:58:26;;;;;;;2.47;0.50;;;;;;;19.78;45.54;100420.47;16108964;19;131207;-49
2023/10/22 08:03:49;;;;;;;1.45;0.55;;;;;;;19.75;45.47;100425.72;16111661;19;129378;-45
2023/10/22 08:09:11;;;;;;;0.85;0.40;;;;;;;19.73;45.48;100439.00;16110014;19;130853;-49
2023/10/22 08:14:33;;;;;;;1.83;0.50;;;;;;;19.68;45.79;100449.00;16112612;19;130847;-48
2023/10/22 08:19:55;;;;;;;3.10;0.38;;;;;;;19.64;45.77;100453.38;16109741;19;134594;-47
2023/10/22 08:25:17;;;;;;;2.50;0.40;;;;;;;19.62;45.76;100463.09;16106107;19;129625;-47
2023/10/22 08:30:43;;;;;;;3.25;0.38;;;;;;;19.56;46.24;100467.75;16103942;19;131027;-46
2023/10/22 08:36:08;;;;;;;1.13;0.47;;;;;;;19.52;46.23;100470.19;16109546;19;130912;-48
2023/10/22 08:41:46;;;;;;;1.38;0.47;;;;;;;19.49;45.90;100472.66;16112712;19;133707;-48
2023/10/22 08:47:08;;;;;;;1.95;0.47;;;;;;;19.44;46.42;100490.09;16108666;19;129233;-46
2023/10/22 08:52:32;;;;;;;1.92;0.50;;;;;;;19.40;46.45;100479.81;16109228;19;129772;-49
2023/10/22 08:57:54;;;;;;;3.47;0.65;;;;;;;19.36;46.56;100493.38;16108806;19;129478;-49
2023/10/22 09:03:18;;;;;;;1.60;0.40;;;;;;;19.31;46.22;100499.69;16105626;19;129956;-50
2023/10/22 09:08:45;;;;;;;1.23;0.40;;;;;;;19.27;46.55;100508.78;16109256;19;130652;-52
2023/10/22 09:14:21;;;;;;;2.80;0.40;;;;;;;19.27;46.48;100509.63;16109420;19;131758;-47
2023/10/22 09:19:47;;;;;;;1.40;0.30;;;;;;;19.30;46.23;100519.34;16107931;19;131109;-47
2023/10/22 09:25:09;;;;;;;3.22;0.40;;;;;;;19.33;46.61;100519.66;16106364;19;129523;-53
2023/10/22 09:30:31;;;;;;;0.75;0.30;;;;;;;19.34;46.15;100521.34;16107403;19;129577;-49
2023/10/22 09:36:00;;;;;;;1.35;0.45;;;;;;;19.36;46.31;100530.25;16112274;19;131713;-49
2023/10/22 09:41:23;;;;;;;1.27;0.60;;;;;;;19.41;46.29;100535.00;16120660;19;131230;-52
2023/10/22 09:46:50;;;;;;;1.50;0.40;;;;;;;19.48;46.11;100546.75;16095001;19;130420;-49
2023/10/22 09:52:14;;;;;;;2.88;0.40;;;;;;;19.63;45.76;100546.06;16111450;19;130521;-51
2023/10/22 09:57:37;;;;;;;3.13;0.60;;;;;;;19.83;45.32;100561.22;16117883;19;130908;-51
2023/10/22 10:03:01;;;;;;;5.47;0.70;;;;;;;20.03;45.27;100562.56;16114830;19;130653;-48
2023/10/22 10:08:24;;;;;;;9.27;0.77;;;;;;;20.21;45.36;100562.13;16120315;19;131186;-46
2023/10/22 10:13:46;;;;;;;8.18;0.70;;;;;;;20.38;45.10;100566.72;16119259;19;131781;-43
2023/10/22 10:19:08;;;;;;;9.25;0.90;;;;;;;20.50;44.55;100564.56;16112979;19;130580;-43
2023/10/22 10:24:32;;;;;;;4.40;0.85;;;;;;;20.64;44.32;100569.66;16125015;19;131179;-42
2023/10/22 10:30:14;;;;;;;4.15;0.85;;;;;;;20.78;44.65;100570.88;16121537;19;131675;-44
2023/10/22 10:35:49;;;;;;;10.77;0.90;;;;;;;20.85;44.41;100579.81;16115378;19;130906;-43
2023/10/22 10:41:12;;;;;;;5.63;1.03;;;;;;;20.90;44.54;100596.53;16118848;19;130400;-42
2023/10/22 10:46:34;;;;;;;13.20;1.05;;;;;;;20.97;44.61;100587.94;16112991;19;131623;-42
2023/10/22 10:52:00;;;;;;;4.65;0.55;;;;;;;21.00;44.12;100600.47;16114054;19;130407;-43
2023/10/22 10:57:34;;;;;;;;;;;;;;;20.96;44.43;100602.09;16104813;19;131000;-46
2023/10/22 11:03:04;;;;;;;11.48;0.77;;;;;;;20.98;44.18;100597.09;16089164;19;130943;-44
2023/10/22 11:08:27;;;;;;;9.60;1.13;;;;;;;21.00;44.33;100600.47;16107211;19;131212;-46
2023/10/22 11:13:52;;;;;;;6.90;0.70;;;;;;;21.05;44.06;100598.53;16110208;19;129919;-43
2023/10/22 11:19:23;;;;;;;7.22;0.90;;;;;;;21.11;44.23;100610.53;16109918;19;130799;-46
2023/10/22 11:24:46;;;;;;;5.78;0.98;;;;;;;21.15;44.29;100617.22;16111742;19;129935;-44
2023/10/22 11:30:08;;;;;;;9.40;0.80;;;;;;;21.17;44.38;100620.56;16108674;19;129991;-51
2023/10/22 11:35:30;;;;;;;9.40;1.05;;;;;;;21.17;44.34;100628.06;16102173;19;129796;-46
2023/10/22 11:41:03;;;;;;;6.00;1.08;;;;;;;21.16;44.15;100635.59;16108940;19;129591;-42
2023/10/22 11:46:39;;;;;;;12.40;1.15;;;;;;;21.15;44.45;100641.41;16102023;19;133845;-45
2023/10/22 11:52:01;;;;;;;10.40;1.40;;;;;;;21.08;44.49;100646.41;16110922;19;130559;-48
2023/10/22 11:57:23;;;;;;;11.38;1.50;;;;;;;21.07;44.71;100651.09;16109794;19;130245;-48
2023/10/22 12:02:45;;;;;;;3.50;1.13;;;;;;;21.04;45.06;100640.53;16109344;19;130954;-44
2023/10/22 12:08:07;;;;;;;10.00;1.00;;;;;;;21.03;44.99;100659.16;16109903;19;131326;-44
2023/10/22 12:13:29;;;;;;;8.63;1.15;;;;;;;21.03;44.95;100664.72;16109673;19;129878;-43
2023/10/22 12:18:51;;;;;;;7.57;0.90;;;;;;;21.07;45.21;100670.56;16108104;19;130709;-47
2023/10/22 12:24:13;;;;;;;15.05;1.40;;;;;;;21.09;45.10;100671.16;16107173;19;131716;-43
2023/10/22 12:29:47;;;;;;;9.93;1.23;;;;;;;21.10;45.11;100678.38;16099702;19;130406;-45
2023/10/22 12:35:09;;;;;;;9.60;1.20;;;;;;;21.04;45.05;100669.19;16100365;19;130615;-45
2023/10/22 12:40:31;;;;;;;11.00;1.50;;;;;;;21.01;45.36;100675.25;16098419;19;132031;-44
2023/10/22 12:45:53;;;;;;;10.88;1.40;;;;;;;21.00;45.03;100684.72;16102739;19;132628;-44
2023/10/22 12:51:15;;;;;;;9.88;1.38;;;;;;;20.97;45.42;100689.97;16107411;19;129499;-45
2023/10/22 12:56:37;;;;;;;10.05;0.98;;;;;;;20.95;45.00;100692.19;16107899;19;131408;-45
2023/10/22 13:02:00;;;;;;;8.68;1.08;;;;;;;20.93;45.46;100699.97;16104199;19;129772;-44
2023/10/22 13:07:22;;;;;;;5.35;1.20;;;;;;;20.88;45.05;100698.84;16105465;19;131637;-45
2023/10/22 13:12:44;;;;;;;12.60;1.63;;;;;;;20.85;45.29;100699.38;16114608;19;130184;-42
2023/10/22 13:18:22;;;;;;;8.43;0.90;;;;;;;20.88;45.39;100715.53;16117703;19;131762;-45
2023/10/22 13:23:45;;;;;;;6.35;0.70;;;;;;;20.87;45.38;100708.28;16115196;19;129529;-43
2023/10/22 13:29:07;;;;;;;5.45;0.90;;;;;;;20.84;45.35;100713.53;16118752;19;130454;-42
2023/10/22 13:34:29;;;;;;;5.78;1.08;;;;;;;20.86;45.61;100711.34;16124818;19;131002;-42
2023/10/22 13:39:51;;;;;;;5.68;0.90;;;;;;;20.86;45.30;100714.94;16120177;19;130558;-46
2023/10/22 13:45:13;;;;;;;4.20;0.80;;;;;;;20.84;45.37;100708.81;16120357;19;130441;-44
2023/10/22 13:50:36;;;;;;;8.35;1.30;;;;;;;20.84;45.45;100714.38;16116578;19;130361;-43
2023/10/22 13:55:59;;;;;;;5.10;0.70;;;;;;;20.84;45.37;100711.59;16115146;19;129611;-44
2023/10/22 14:01:21;;;;;;;4.93;1.10;;;;;;;20.82;45.62;100713.78;16112599;19;130842;-43
2023/10/22 14:06:44;;;;;;;3.00;0.68;;;;;;;20.80;45.47;100724.34;16114895;19;130204;-42
2023/10/22 14:12:06;;;;;;;2.50;0.80;;;;;;;20.83;45.43;100734.09;16115025;19;129729;-46
2023/10/22 14:17:28;;;;;;;3.13;0.70;;;;;;;20.82;45.47;100733.25;16119540;19;129693;-43
2023/10/22 14:22:50;;;;;;;2.75;0.70;;;;;;;20.78;45.43;100736.84;16118049;19;131256;-45
2023/10/22 14:28:12;;;;;;;3.78;0.73;;;;;;;20.78;45.66;100740.47;16115717;19;130265;-43
2023/10/22 14:33:36;;;;;;;3.50;0.63;;;;;;;20.78;45.43;100737.69;16119750;19;129883;-43
2023/10/22 14:38:58;;;;;;;2.47;0.73;;;;;;;20.77;45.26;100746.28;16117134;19;129809;-43
2023/10/22 14:44:21;;;;;;;2.42;0.60;;;;;;;20.78;45.28;100756.28;16118556;19;130719;-44
2023/10/22 14:49:43;;;;;;;2.60;0.60;;;;;;;20.77;45.75;100758.25;16115197;19;129276;-45
2023/10/22 14:55:05;;;;;;;3.53;0.60;;;;;;;20.75;45.79;100764.06;16107145;19;132373;-43
2023/10/22 15:00:27;;;;;;;9.38;0.95;;;;;;;20.74;45.47;100769.88;16094113;19;131828;-42
2023/10/22 15:05:49;;;;;;;2.50;0.70;;;;;;;20.72;45.25;100766.50;16107520;19;129563;-42
2023/10/22 15:11:19;;;;;;;3.85;0.85;;;;;;;20.67;45.30;100772.03;16112312;19;131161;-43
2023/10/22 15:16:42;;;;;;;8.43;1.70;;;;;;;20.63;44.90;100773.66;16111946;19;129698;-42
2023/10/22 15:22:04;;;;;;;4.82;1.85;;;;;;;20.67;44.88;100772.03;16108821;19;129556;-43
2023/10/22 15:27:26;;;;;;;5.93;1.98;;;;;;;20.69;45.05;100786.47;16111222;19;131887;-45
2023/10/22 15:32:48;;;;;;;6.72;1.50;;;;;;;20.69;44.53;100789.25;16112952;19;129653;-41
2023/10/22 15:38:13;;;;;;;9.60;1.98;;;;;;;20.71;44.86;100809.31;16106843;19;132524;-42
2023/10/22 15:43:35;;;;;;;3.67;1.25;;;;;;;20.69;44.57;100798.47;16111165;19;131198;-42
2023/10/22 15:48:57;;;;;;;4.93;1.63;;;;;;;20.67;44.44;100824.84;16111405;19;130678;-45
2023/10/22 15:54:19;;;;;;;4.43;1.40;;;;;;;20.69;44.90;100817.91;16110008;19;129666;-42
2023/10/22 15:59:41;;;;;;;5.38;1.30;;;;;;;20.71;44.85;100840.75;16109895;19;131198;-42
2023/10/22 16:05:07;;;;;;;6.35;1.50;;;;;;;20.71;44.63;100853.78;16107994;19;130988;-45
2023/10/22 16:10:29;;;;;;;2.92;1.25;;;;;;;20.71;44.92;100856.56;16110771;19;130120;-42
2023/10/22 16:15:51;;;;;;;5.00;1.58;;;;;;;20.73;44.54;100868.25;16110654;19;130001;-46
2023/10/22 16:21:13;;;;;;;7.85;1.77;;;;;;;20.73;44.63;100873.81;16107594;19;130840;-46
2023/10/22 16:26:35;;;;;;;4.32;1.52;;;;;;;20.73;45.11;100876.59;16102972;19;130603;-46
2023/10/22 16:31:57;;;;;;;3.83;1.48;;;;;;;20.73;44.76;100873.81;16108302;19;131038;-42
2023/10/22 16:37:19;;;;;;;11.38;1.55;;;;;;;20.71;44.84;100882.44;16109471;19;132520;-42
2023/10/22 16:42:44;;;;;;;13.25;2.75;;;;;;;20.72;45.33;100877.69;16107483;19;130311;-42
2023/10/22 16:48:06;;;;;;;15.57;2.28;;;;;;;20.74;45.38;100884.66;16101837;19;130806;-42
2023/10/22 16:53:29;;;;;;;19.13;2.28;;;;;;;20.75;45.52;100883.59;16108333;19;131948;-38
2023/10/22 16:58:51;;;;;;;16.88;2.50;;;;;;;20.74;45.51;100892.19;16105606;19;129340;-41
2023/10/22 17:04:13;;;;;;;18.27;2.33;;;;;;;20.71;45.75;100892.69;16102179;19;130409;-44
2023/10/22 17:09:35;;;;;;;14.25;2.10;;;;;;;20.68;45.80;100896.00;16104708;19;135770;-48
2023/10/22 17:14:58;;;;;;;27.38;2.95;;;;;;;20.64;46.26;100905.97;16099998;19;131292;-44
2023/10/22 17:20:20;;;;;;;12.07;2.42;;;;;;;20.60;46.56;100909.28;16101003;19;130643;-41
2023/10/22 17:25:48;;;;;;;20.80;2.63;;;;;;;20.56;46.27;100927.56;16105740;19;130509;-41
2023/10/22 17:31:16;;;;;;;21.95;3.00;;;;;;;20.55;46.44;100934.25;16103357;19;134019;-42
2023/10/22 17:36:40;;;;;;;25.13;2.45;;;;;;;20.56;46.62;100935.88;16102557;19;129878;-40
2023/10/22 17:42:03;;;;;;;25.13;2.78;;;;;;;20.62;46.75;100938.75;16104657;19;130067;-40
2023/10/22 17:47:25;;;;;;;28.88;3.22;;;;;;;20.66;46.42;100951.88;16105625;19;131450;-41
2023/10/22 17:52:48;;;;;;;23.15;2.75;;;;;;;20.72;46.67;100961.97;16104379;19;130468;-41
2023/10/22 17:58:11;;;;;;;30.85;2.95;;;;;;;20.77;46.71;100969.53;16115488;19;132319;-45
2023/10/22 18:03:36;;;;;;;20.02;2.53;;;;;;;20.81;46.43;100976.25;16117417;19;130818;-41
2023/10/22 18:08:59;;;;;;;48.63;3.22;;;;;;;20.82;46.95;100988.22;16116973;19;131216;-41
2023/10/22 18:14:21;;;;;;;30.00;3.80;;;;;;;20.83;46.84;100996.28;16115673;19;129523;-42
2023/10/22 18:19:43;;;;;;;31.23;2.90;;;;;;;20.83;46.75;100999.06;16116875;19;130100;-41
2023/10/22 18:25:12;;;;;;;35.60;2.97;;;;;;;20.83;46.60;101010.19;16109247;19;130565;-44
2023/10/22 18:30:34;;;;;;;30.92;3.20;;;;;;;20.80;47.13;101024.59;16113939;19;131103;-45
2023/10/22 18:35:59;;;;;;;23.48;2.97;;;;;;;20.78;47.14;101015.72;16117606;19;131212;-44
2023/10/22 18:41:21;;;;;;;27.83;2.57;;;;;;;20.79;47.20;101020.19;16117001;19;129880;-43
2023/10/22 18:46:43;;;;;;;21.73;3.40;;;;;;;20.83;46.96;101026.06;16112849;19;131060;-45
2023/10/22 18:52:05;;;;;;;13.63;2.55;;;;;;;20.84;47.02;101025.78;16114068;19;132122;-44
2023/10/22 18:57:27;;;;;;;16.92;2.65;;;;;;;20.85;46.97;101027.47;16107950;19;131439;-48
2023/10/22 19:02:49;;;;;;;18.65;3.08;;;;;;;20.86;46.71;101029.16;16118494;19;129507;-45
2023/10/22 19:08:12;;;;;;;27.92;2.95;;;;;;;20.89;47.28;101036.13;16111861;19;129858;-43
2023/10/22 19:13:34;;;;;;;19.30;2.67;;;;;;;20.92;47.35;101046.75;16109212;19;131687;-43
2023/10/22 19:18:57;;;;;;;37.20;4.20;;;;;;;20.93;47.09;101047.56;16115100;19;129860;-44
2023/10/22 19:24:19;;;;;;;34.33;3.53;;;;;;;20.92;47.00;101052.31;16108613;19;129812;-44
2023/10/22 19:29:41;;;;;;;29.45;3.03;;;;;;;20.94;47.37;101054.81;16110651;19;131366;-49
2023/10/22 19:35:04;;;;;;;17.58;2.45;;;;;;;21.02;47.24;101060.75;16111330;19;131582;-42
2023/10/22 19:40:26;;;;;;;17.58;2.53;;;;;;;21.17;46.83;101070.41;16106877;19;131094;-45
2023/10/22 19:45:52;;;;;;;15.57;2.25;;;;;;;21.38;46.64;101074.25;16114865;19;131107;-44
2023/10/22 19:51:14;;;;;;;16.35;2.75;;;;;;;21.55;46.35;101079.75;16111652;19;130788;-45
2023/10/22 19:56:36;;;;;;;16.83;2.40;;;;;;;21.74;45.89;101090.50;16103613;19;130933;-48
2023/10/22 20:02:01;;;;;;;20.88;2.00;;;;;;;21.91;46.28;101096.81;16103515;19;131297;-41
2023/10/22 20:07:38;;;;;;;17.58;2.35;;;;;;;22.05;45.93;101096.38;16109973;19;131593;-41
2023/10/22 20:13:00;;;;;;;20.95;2.60;;;;;;;22.11;45.47;101096.16;16107327;19;129962;-46
2023/10/22 20:18:22;;;;;;;11.77;1.92;;;;;;;22.13;45.95;101088.38;16109961;19;129539;-42
2023/10/22 20:23:45;;;;;;;12.30;2.10;;;;;;;22.09;45.94;101087.22;16110730;19;131480;-43
2023/10/22 20:29:07;;;;;;;18.40;1.85;;;;;;;22.02;46.31;101089.38;16101356;19;131743;-41
2023/10/22 20:34:29;;;;;;;11.57;1.63;;;;;;;21.96;46.76;101096.00;16099147;19;131881;-41
2023/10/22 20:39:51;;;;;;;24.55;2.30;;;;;;;21.88;46.79;101096.50;16098309;19;132668;-42
2023/10/22 20:45:17;;;;;;;21.85;1.95;;;;;;;21.79;47.19;101098.91;16099495;19;131548;-44
2023/10/22 20:50:39;;;;;;;17.52;2.58;;;;;;;21.67;47.05;101108.28;16094474;19;131908;-42
2023/10/22 20:56:03;;;;;;;17.85;1.67;;;;;;;21.51;46.82;101106.44;16086147;19;130826;-45
2023/10/22 21:01:25;;;;;;;9.50;1.42;;;;;;;21.38;46.82;101104.88;16083895;19;132654;-45
2023/10/22 21:06:47;;;;;;;13.90;1.73;;;;;;;21.29;46.37;101112.00;16086324;19;132884;-45
2023/10/22 21:12:09;;;;;;;11.38;1.95;;;;;;;21.19;46.94;101110.75;16085507;19;130200;-45
2023/10/22 21:17:31;;;;;;;9.90;2.10;;;;;;;21.10;46.81;101112.31;16077634;19;131011;-46
2023/10/22 21:22:53;;;;;;;9.68;1.40;;;;;;;21.01;46.90;101097.19;16083954;19;132506;-43
2023/10/22 21:28:15;;;;;;;7.03;1.30;;;;;;;20.94;46.73;101110.44;16083209;19;131192;-42
2023/10/22 21:33:36;;;;;;;11.52;1.50;;;;;;;20.88;46.83;101118.72;16090842;19;130807;-42
2023/10/22 21:38:58;;;;;;;9.30;1.40;;;;;;;20.82;46.91;101114.19;16106759;19;130957;-41
2023/10/22 21:44:20;;;;;;;8.50;1.30;;;;;;;20.77;47.21;101119.69;16107996;19;132744;-43
2023/10/22 21:49:42;;;;;;;9.27;1.52;;;;;;;20.72;47.17;101117.63;16104905;19;133237;-43
2023/10/22 21:55:05;;;;;;;9.68;1.67;;;;;;;20.67;47.49;101117.56;16111152;19;130874;-45
2023/10/22 22:00:28;;;;;;;9.88;1.60;;;;;;;20.65;47.36;101122.53;16115090;19;130743;-47
2023/10/22 22:05:50;;;;;;;10.38;1.60;;;;;;;20.60;47.12;101111.34;16114787;19;130149;-42
2023/10/22 22:11:11;;;;;;;9.05;1.33;;;;;;;20.57;47.61;101120.19;16119686;19;129791;-45
2023/10/22 22:16:33;;;;;;;8.32;1.40;;;;;;;20.52;47.18;101117.31;16120478;19;131479;-43
2023/10/22 22:21:55;;;;;;;7.13;1.35;;;;;;;20.49;47.65;101118.69;16119038;19;134073;-42
2023/10/22 22:27:17;;;;;;;6.85;1.42;;;;;;;20.46;47.17;101119.19;16116849;19;132138;-42
2023/10/22 22:32:39;;;;;;;3.50;0.82;;;;;;;20.44;47.22;101124.16;16118399;19;130128;-45
2023/10/22 22:38:01;;;;;;;5.70;1.15;;;;;;;20.41;47.61;101131.06;16110072;19;130623;-46
2023/10/22 22:43:23;;;;;;;6.25;1.38;;;;;;;20.38;47.69;101134.34;16113384;19;130619;-48
2023/10/22 22:48:44;;;;;;;4.32;0.80;;;;;;;20.35;47.40;101140.44;16116634;19;129860;-46
2023/10/22 22:54:06;;;;;;;6.70;1.35;;;;;;;20.33;47.29;101141.75;16117810;19;129656;-44
2023/10/22 22:59:28;;;;;;;4.10;0.95;;;;;;;20.31;47.74;101143.97;16113189;19;131950;-45
2023/10/22 23:04:51;;;;;;;9.20;1.35;;;;;;;20.29;47.62;101144.19;16109956;19;134269;-50
2023/10/22 23:10:13;;;;;;;2.13;0.70;;;;;;;20.26;47.63;101141.91;16117333;19;131219;-42
2023/10/22 23:15:36;;;;;;;5.13;1.27;;;;;;;20.22;47.62;101147.16;16112773;19;132458;-43
2023/10/22 23:20:58;;;;;;;3.50;0.90;;;;;;;20.20;47.35;101149.31;16110351;19;132176;-41
2023/10/22 23:26:20;;;;;;;4.70;1.05;;;;;;;20.19;47.65;101141.25;16110210;19;130525;-44
2023/10/22 23:31:42;;;;;;;5.05;0.95;;;;;;;20.17;47.67;101152.63;16109935;19;130329;-45
2023/10/22 23:37:04;;;;;;;7.18;0.95;;;;;;;20.16;47.44;101144.53;16110697;19;129616;-46
2023/10/22 23:42:26;;;;;;;4.00;0.80;;;;;;;20.14;47.43;101147.56;16109875;19;131229;-44
2023/10/22 23:47:48;;;;;;;3.50;0.90;;;;;;;20.12;47.70;101152.53;16112577;19;129463;-47
2023/10/22 23:53:10;;;;;;;4.60;1.10;;;;;;;20.10;47.69;101163.91;16109357;19;134784;-42
2023/10/22 23:58:32;;;;;;;5.80;1.02;;;;;;;20.09;47.67;101172.47;16113538;19;129590;-44
